sensor_id;sensor_type;location;lat;lon;timestamp;P1;durP1;ratioP1;P2;durP2;ratioP2
38312;SDS011;24114;52.260;6.714;2023-08-07T12:20:48;4.03;;;0.60;;
38312;SDS011;24114;52.260;6.714;2023-08-07T12:23:16;4.80;;;0.77;;
38312;SDS011;24114;52.260;6.714;2023-08-07T12:25:45;3.97;;;0.90;;
38312;SDS011;24114;52.260;6.714;2023-08-07T12:28:13;4.00;;;1.08;;
38312;SDS011;24114;52.260;6.714;2023-08-07T12:30:42;4.68;;;0.85;;
38312;SDS011;24114;52.260;6.714;2023-08-07T12:33:11;3.85;;;0.77;;
38312;SDS011;24114;52.260;6.714;2023-08-07T12:35:39;2.70;;;0.80;;
38312;SDS011;24114;52.260;6.714;2023-08-07T12:38:08;3.80;;;0.70;;
38312;SDS011;24114;52.260;6.714;2023-08-07T12:40:37;3.80;;;1.02;;
38312;SDS011;24114;52.260;6.714;2023-08-07T12:43:06;5.13;;;0.70;;
38312;SDS011;24114;52.260;6.714;2023-08-07T12:45:34;2.35;;;0.52;;
38312;SDS011;24114;52.260;6.714;2023-08-07T12:48:05;2.70;;;0.60;;
38312;SDS011;24114;52.260;6.714;2023-08-07T12:50:33;3.38;;;0.45;;
38312;SDS011;24114;52.260;6.714;2023-08-07T12:53:01;3.35;;;0.60;;
38312;SDS011;24114;52.260;6.714;2023-08-07T12:55:30;2.80;;;0.40;;
38312;SDS011;24114;52.260;6.714;2023-08-07T12:57:58;2.45;;;0.43;;
38312;SDS011;24114;52.260;6.714;2023-08-07T13:00:26;1.85;;;0.50;;
38312;SDS011;24114;52.260;6.714;2023-08-07T13:02:54;2.85;;;0.40;;
38312;SDS011;24114;52.260;6.714;2023-08-07T13:05:22;3.42;;;0.60;;
38312;SDS011;24114;52.260;6.714;2023-08-07T13:07:50;1.30;;;0.30;;
38312;SDS011;24114;52.260;6.714;2023-08-07T13:10:20;2.17;;;0.30;;
38312;SDS011;24114;52.260;6.714;2023-08-07T13:12:50;2.17;;;0.40;;
38312;SDS011;24114;52.260;6.714;2023-08-07T13:15:17;2.70;;;0.30;;
38312;SDS011;24114;52.260;6.714;2023-08-07T13:17:45;2.60;;;0.50;;
38312;SDS011;24114;52.260;6.714;2023-08-07T13:20:13;3.53;;;0.43;;
38312;SDS011;24114;52.260;6.714;2023-08-07T13:22:41;2.85;;;0.30;;
38312;SDS011;24114;52.260;6.714;2023-08-07T13:25:11;2.55;;;0.50;;
38312;SDS011;24114;52.260;6.714;2023-08-07T13:27:40;1.63;;;0.32;;
38312;SDS011;24114;52.260;6.714;2023-08-07T13:30:10;5.10;;;0.38;;
38312;SDS011;24114;52.260;6.714;2023-08-07T13:32:38;1.88;;;0.50;;
38312;SDS011;24114;52.260;6.714;2023-08-07T13:35:06;2.97;;;0.50;;
38312;SDS011;24114;52.260;6.714;2023-08-07T13:37:35;1.60;;;0.50;;
38312;SDS011;24114;52.260;6.714;2023-08-07T13:40:05;3.03;;;0.43;;
38312;SDS011;24114;52.260;6.714;2023-08-07T13:42:33;1.83;;;0.40;;
38312;SDS011;24114;52.260;6.714;2023-08-07T13:45:01;3.60;;;0.65;;
38312;SDS011;24114;52.260;6.714;2023-08-07T13:47:32;3.35;;;0.40;;
38312;SDS011;24114;52.260;6.714;2023-08-07T13:50:02;2.40;;;0.45;;
38312;SDS011;24114;52.260;6.714;2023-08-07T13:52:31;3.83;;;0.50;;
38312;SDS011;24114;52.260;6.714;2023-08-07T13:54:59;2.22;;;0.40;;
38312;SDS011;24114;52.260;6.714;2023-08-07T13:57:27;3.97;;;0.70;;
38312;SDS011;24114;52.260;6.714;2023-08-07T13:59:54;2.40;;;0.50;;
38312;SDS011;24114;52.260;6.714;2023-08-07T14:02:22;2.33;;;0.60;;
38312;SDS011;24114;52.260;6.714;2023-08-07T14:04:52;2.85;;;0.52;;
38312;SDS011;24114;52.260;6.714;2023-08-07T14:07:19;2.47;;;0.32;;
38312;SDS011;24114;52.260;6.714;2023-08-07T14:09:47;3.88;;;0.50;;
38312;SDS011;24114;52.260;6.714;2023-08-07T14:12:15;2.22;;;0.45;;
38312;SDS011;24114;52.260;6.714;2023-08-07T14:14:43;2.42;;;0.45;;
38312;SDS011;24114;52.260;6.714;2023-08-07T14:17:10;3.78;;;0.40;;
38312;SDS011;24114;52.260;6.714;2023-08-07T14:19:38;3.10;;;0.40;;
38312;SDS011;24114;52.260;6.714;2023-08-07T14:22:07;4.13;;;0.73;;
38312;SDS011;24114;52.260;6.714;2023-08-07T14:24:36;2.33;;;0.57;;
38312;SDS011;24114;52.260;6.714;2023-08-07T14:27:04;2.95;;;0.70;;
38312;SDS011;24114;52.260;6.714;2023-08-07T14:29:32;3.25;;;0.52;;
38312;SDS011;24114;52.260;6.714;2023-08-07T14:32:00;3.40;;;0.40;;
38312;SDS011;24114;52.260;6.714;2023-08-07T14:34:28;2.20;;;0.57;;
38312;SDS011;24114;52.260;6.714;2023-08-07T14:36:56;1.88;;;0.30;;
38312;SDS011;24114;52.260;6.714;2023-08-07T14:39:25;1.73;;;0.30;;
38312;SDS011;24114;52.260;6.714;2023-08-07T14:41:53;1.47;;;0.30;;
38312;SDS011;24114;52.260;6.714;2023-08-07T14:44:21;2.57;;;0.40;;
38312;SDS011;24114;52.260;6.714;2023-08-07T14:46:49;2.30;;;0.20;;
38312;SDS011;24114;52.260;6.714;2023-08-07T14:50:10;1.27;;;0.38;;
38312;SDS011;24114;52.260;6.714;2023-08-07T14:52:38;3.85;;;0.43;;
38312;SDS011;24114;52.260;6.714;2023-08-07T14:55:06;2.60;;;0.40;;
38312;SDS011;24114;52.260;6.714;2023-08-07T14:57:34;2.67;;;0.40;;
38312;SDS011;24114;52.260;6.714;2023-08-07T15:00:02;3.17;;;0.57;;
38312;SDS011;24114;52.260;6.714;2023-08-07T15:02:32;1.77;;;0.40;;
38312;SDS011;24114;52.260;6.714;2023-08-07T15:04:59;2.92;;;0.50;;
38312;SDS011;24114;52.260;6.714;2023-08-07T15:07:28;1.70;;;0.40;;
38312;SDS011;24114;52.260;6.714;2023-08-07T15:09:56;1.10;;;0.30;;
38312;SDS011;24114;52.260;6.714;2023-08-07T15:12:24;2.10;;;0.40;;
38312;SDS011;24114;52.260;6.714;2023-08-07T15:14:52;3.53;;;0.28;;
38312;SDS011;24114;52.260;6.714;2023-08-07T15:19:49;1.85;;;0.40;;
38312;SDS011;24114;52.260;6.714;2023-08-07T15:22:17;2.92;;;0.57;;
38312;SDS011;24114;52.260;6.714;2023-08-07T15:24:45;2.50;;;0.52;;
38312;SDS011;24114;52.260;6.714;2023-08-07T15:27:13;2.85;;;0.38;;
38312;SDS011;24114;52.260;6.714;2023-08-07T15:29:41;3.60;;;0.65;;
38312;SDS011;24114;52.260;6.714;2023-08-07T15:32:13;1.70;;;0.30;;
38312;SDS011;24114;52.260;6.714;2023-08-07T15:34:41;3.50;;;0.35;;
38312;SDS011;24114;52.260;6.714;2023-08-07T15:37:10;1.20;;;0.30;;
38312;SDS011;24114;52.260;6.714;2023-08-07T15:39:37;1.33;;;0.10;;
38312;SDS011;24114;52.260;6.714;2023-08-07T15:42:05;2.10;;;0.20;;
38312;SDS011;24114;52.260;6.714;2023-08-07T15:44:33;1.23;;;0.38;;
38312;SDS011;24114;52.260;6.714;2023-08-07T15:47:04;1.83;;;0.60;;
38312;SDS011;24114;52.260;6.714;2023-08-07T15:49:32;3.15;;;0.30;;
38312;SDS011;24114;52.260;6.714;2023-08-07T15:52:00;3.97;;;0.50;;
38312;SDS011;24114;52.260;6.714;2023-08-07T15:54:29;2.33;;;0.20;;
38312;SDS011;24114;52.260;6.714;2023-08-07T15:58:39;2.03;;;0.20;;
38312;SDS011;24114;52.260;6.714;2023-08-07T16:01:07;1.50;;;0.50;;
38312;SDS011;24114;52.260;6.714;2023-08-07T16:03:34;2.40;;;0.30;;
38312;SDS011;24114;52.260;6.714;2023-08-07T16:06:02;1.77;;;0.30;;
38312;SDS011;24114;52.260;6.714;2023-08-07T16:08:30;2.75;;;0.55;;
38312;SDS011;24114;52.260;6.714;2023-08-07T16:10:58;1.30;;;0.10;;
38312;SDS011;24114;52.260;6.714;2023-08-07T16:13:27;1.60;;;0.40;;
38312;SDS011;24114;52.260;6.714;2023-08-07T16:15:56;2.17;;;0.47;;
38312;SDS011;24114;52.260;6.714;2023-08-07T16:18:24;3.20;;;0.50;;
38312;SDS011;24114;52.260;6.714;2023-08-07T16:20:52;1.48;;;0.30;;
38312;SDS011;24114;52.260;6.714;2023-08-07T16:23:20;2.25;;;0.50;;
38312;SDS011;24114;52.260;6.714;2023-08-07T16:25:48;1.33;;;0.20;;
38312;SDS011;24114;52.260;6.714;2023-08-07T16:28:16;1.85;;;0.30;;
38312;SDS011;24114;52.260;6.714;2023-08-07T16:30:45;1.67;;;0.22;;
38312;SDS011;24114;52.260;6.714;2023-08-07T16:33:14;1.88;;;0.28;;
38312;SDS011;24114;52.260;6.714;2023-08-07T16:35:42;3.35;;;0.28;;
38312;SDS011;24114;52.260;6.714;2023-08-07T16:38:10;3.08;;;0.30;;
38312;SDS011;24114;52.260;6.714;2023-08-07T16:40:38;2.10;;;0.30;;
38312;SDS011;24114;52.260;6.714;2023-08-07T16:43:06;2.20;;;0.30;;
38312;SDS011;24114;52.260;6.714;2023-08-07T16:45:34;2.13;;;0.32;;
38312;SDS011;24114;52.260;6.714;2023-08-07T16:48:02;2.42;;;0.40;;
38312;SDS011;24114;52.260;6.714;2023-08-07T16:50:32;1.80;;;0.30;;
38312;SDS011;24114;52.260;6.714;2023-08-07T16:52:59;1.48;;;0.38;;
38312;SDS011;24114;52.260;6.714;2023-08-07T16:55:27;2.22;;;0.30;;
38312;SDS011;24114;52.260;6.714;2023-08-07T16:57:55;2.15;;;0.20;;
38312;SDS011;24114;52.260;6.714;2023-08-07T17:00:23;2.10;;;0.30;;
38312;SDS011;24114;52.260;6.714;2023-08-07T17:03:30;1.77;;;0.25;;
38312;SDS011;24114;52.260;6.714;2023-08-07T17:05:58;2.05;;;0.25;;
38312;SDS011;24114;52.260;6.714;2023-08-07T17:08:26;2.00;;;0.47;;
38312;SDS011;24114;52.260;6.714;2023-08-07T17:10:53;2.40;;;0.30;;
38312;SDS011;24114;52.260;6.714;2023-08-07T17:13:21;1.37;;;0.30;;
38312;SDS011;24114;52.260;6.714;2023-08-07T17:15:50;1.45;;;0.40;;
38312;SDS011;24114;52.260;6.714;2023-08-07T17:18:18;1.55;;;0.20;;
38312;SDS011;24114;52.260;6.714;2023-08-07T17:20:47;1.90;;;0.40;;
38312;SDS011;24114;52.260;6.714;2023-08-07T17:23:15;1.77;;;0.20;;
38312;SDS011;24114;52.260;6.714;2023-08-07T17:25:42;1.85;;;0.30;;
38312;SDS011;24114;52.260;6.714;2023-08-07T17:28:10;2.30;;;0.40;;
38312;SDS011;24114;52.260;6.714;2023-08-07T17:30:38;1.60;;;0.47;;
38312;SDS011;24114;52.260;6.714;2023-08-07T17:33:06;3.35;;;0.40;;
38312;SDS011;24114;52.260;6.714;2023-08-07T17:35:34;2.88;;;0.43;;
38312;SDS011;24114;52.260;6.714;2023-08-07T17:38:03;3.20;;;0.50;;
38312;SDS011;24114;52.260;6.714;2023-08-07T17:40:31;2.30;;;0.50;;
38312;SDS011;24114;52.260;6.714;2023-08-07T17:42:59;1.95;;;0.40;;
38312;SDS011;24114;52.260;6.714;2023-08-07T17:45:26;1.93;;;0.30;;
38312;SDS011;24114;52.260;6.714;2023-08-07T17:47:54;1.40;;;0.25;;
38312;SDS011;24114;52.260;6.714;2023-08-07T17:50:22;2.00;;;0.30;;
38312;SDS011;24114;52.260;6.714;2023-08-07T17:52:50;2.65;;;0.38;;
38312;SDS011;24114;52.260;6.714;2023-08-07T17:55:19;2.30;;;0.38;;
38312;SDS011;24114;52.260;6.714;2023-08-07T17:57:47;2.83;;;0.32;;
38312;SDS011;24114;52.260;6.714;2023-08-07T18:00:15;1.08;;;0.40;;
38312;SDS011;24114;52.260;6.714;2023-08-07T18:02:43;2.00;;;0.40;;
38312;SDS011;24114;52.260;6.714;2023-08-07T18:05:11;1.55;;;0.40;;
38312;SDS011;24114;52.260;6.714;2023-08-07T18:07:39;0.85;;;0.20;;
38312;SDS011;24114;52.260;6.714;2023-08-07T18:10:07;1.50;;;0.20;;
38312;SDS011;24114;52.260;6.714;2023-08-07T18:12:37;2.67;;;0.30;;
38312;SDS011;24114;52.260;6.714;2023-08-07T18:15:06;1.67;;;0.20;;
38312;SDS011;24114;52.260;6.714;2023-08-07T18:17:34;1.45;;;0.30;;
38312;SDS011;24114;52.260;6.714;2023-08-07T18:20:02;0.77;;;0.20;;
38312;SDS011;24114;52.260;6.714;2023-08-07T18:22:32;1.67;;;0.30;;
38312;SDS011;24114;52.260;6.714;2023-08-07T18:25:00;2.17;;;0.35;;
38312;SDS011;24114;52.260;6.714;2023-08-07T18:29:38;2.50;;;0.40;;
38312;SDS011;24114;52.260;6.714;2023-08-07T18:32:06;3.28;;;0.22;;
38312;SDS011;24114;52.260;6.714;2023-08-07T18:34:34;2.08;;;0.25;;
38312;SDS011;24114;52.260;6.714;2023-08-07T18:37:02;2.08;;;0.20;;
38312;SDS011;24114;52.260;6.714;2023-08-07T18:39:30;1.30;;;0.30;;
38312;SDS011;24114;52.260;6.714;2023-08-07T18:41:58;1.50;;;0.30;;
38312;SDS011;24114;52.260;6.714;2023-08-07T18:44:26;2.10;;;0.40;;
38312;SDS011;24114;52.260;6.714;2023-08-07T18:46:55;2.55;;;0.40;;
38312;SDS011;24114;52.260;6.714;2023-08-07T18:49:23;1.95;;;0.30;;
38312;SDS011;24114;52.260;6.714;2023-08-07T18:51:51;1.75;;;0.30;;
38312;SDS011;24114;52.260;6.714;2023-08-07T18:54:19;1.35;;;0.20;;
38312;SDS011;24114;52.260;6.714;2023-08-07T18:56:47;1.35;;;0.20;;
38312;SDS011;24114;52.260;6.714;2023-08-07T18:59:15;0.98;;;0.30;;
38312;SDS011;24114;52.260;6.714;2023-08-07T19:01:42;3.10;;;0.30;;
38312;SDS011;24114;52.260;6.714;2023-08-07T19:04:11;1.80;;;0.43;;
38312;SDS011;24114;52.260;6.714;2023-08-07T19:06:39;2.20;;;0.35;;
38312;SDS011;24114;52.260;6.714;2023-08-07T19:09:09;1.50;;;0.40;;
38312;SDS011;24114;52.260;6.714;2023-08-07T19:11:37;1.40;;;0.40;;
38312;SDS011;24114;52.260;6.714;2023-08-07T19:14:05;1.53;;;0.50;;
38312;SDS011;24114;52.260;6.714;2023-08-07T19:16:33;1.15;;;0.38;;
38312;SDS011;24114;52.260;6.714;2023-08-07T19:19:00;1.80;;;0.60;;
38312;SDS011;24114;52.260;6.714;2023-08-07T19:21:30;2.13;;;0.38;;
38312;SDS011;24114;52.260;6.714;2023-08-07T19:23:58;3.83;;;0.68;;
38312;SDS011;24114;52.260;6.714;2023-08-07T19:26:25;2.45;;;0.68;;
38312;SDS011;24114;52.260;6.714;2023-08-07T19:28:53;1.75;;;0.47;;
38312;SDS011;24114;52.260;6.714;2023-08-07T19:31:22;2.20;;;0.70;;
38312;SDS011;24114;52.260;6.714;2023-08-07T19:33:50;1.87;;;0.30;;
38312;SDS011;24114;52.260;6.714;2023-08-07T19:36:18;2.25;;;0.60;;
38312;SDS011;24114;52.260;6.714;2023-08-07T19:38:47;3.00;;;0.63;;
38312;SDS011;24114;52.260;6.714;2023-08-07T19:41:15;2.40;;;0.60;;
38312;SDS011;24114;52.260;6.714;2023-08-07T19:43:43;2.42;;;0.55;;
38312;SDS011;24114;52.260;6.714;2023-08-07T19:46:13;2.28;;;0.68;;
38312;SDS011;24114;52.260;6.714;2023-08-07T19:48:41;1.20;;;0.60;;
38312;SDS011;24114;52.260;6.714;2023-08-07T19:51:09;2.88;;;1.10;;
38312;SDS011;24114;52.260;6.714;2023-08-07T19:53:41;2.65;;;0.90;;
38312;SDS011;24114;52.260;6.714;2023-08-07T19:56:28;2.60;;;0.50;;
38312;SDS011;24114;52.260;6.714;2023-08-07T19:59:01;2.60;;;0.68;;
38312;SDS011;24114;52.260;6.714;2023-08-07T20:01:31;1.40;;;0.38;;
38312;SDS011;24114;52.260;6.714;2023-08-07T20:03:59;1.57;;;0.53;;
38312;SDS011;24114;52.260;6.714;2023-08-07T20:06:27;2.05;;;0.68;;
38312;SDS011;24114;52.260;6.714;2023-08-07T20:08:55;3.30;;;0.75;;
38312;SDS011;24114;52.260;6.714;2023-08-07T20:11:25;2.20;;;0.77;;
38312;SDS011;24114;52.260;6.714;2023-08-07T20:13:54;1.75;;;0.70;;
38312;SDS011;24114;52.260;6.714;2023-08-07T20:16:22;2.33;;;0.80;;
38312;SDS011;24114;52.260;6.714;2023-08-07T20:18:50;2.87;;;0.90;;
38312;SDS011;24114;52.260;6.714;2023-08-07T20:21:18;2.80;;;1.08;;
38312;SDS011;24114;52.260;6.714;2023-08-07T20:23:45;3.17;;;1.33;;
38312;SDS011;24114;52.260;6.714;2023-08-07T20:26:13;2.17;;;0.90;;
38312;SDS011;24114;52.260;6.714;2023-08-07T20:28:41;1.70;;;0.85;;
38312;SDS011;24114;52.260;6.714;2023-08-07T20:31:10;1.60;;;0.73;;
38312;SDS011;24114;52.260;6.714;2023-08-07T20:33:38;2.80;;;1.50;;
38312;SDS011;24114;52.260;6.714;2023-08-07T20:36:06;2.95;;;1.13;;
38312;SDS011;24114;52.260;6.714;2023-08-07T20:38:34;2.83;;;1.40;;
38312;SDS011;24114;52.260;6.714;2023-08-07T20:41:02;2.10;;;1.08;;
38312;SDS011;24114;52.260;6.714;2023-08-07T20:44:08;3.40;;;1.27;;
38312;SDS011;24114;52.260;6.714;2023-08-07T20:46:36;1.73;;;1.08;;
38312;SDS011;24114;52.260;6.714;2023-08-07T20:49:04;2.65;;;1.20;;
38312;SDS011;24114;52.260;6.714;2023-08-07T20:51:31;1.98;;;1.15;;
38312;SDS011;24114;52.260;6.714;2023-08-07T20:54:00;2.97;;;1.30;;
38312;SDS011;24114;52.260;6.714;2023-08-07T20:56:28;3.50;;;1.40;;
38312;SDS011;24114;52.260;6.714;2023-08-07T20:58:56;4.20;;;1.20;;
38312;SDS011;24114;52.260;6.714;2023-08-07T21:01:25;2.83;;;1.23;;
38312;SDS011;24114;52.260;6.714;2023-08-07T21:03:53;2.85;;;1.30;;
38312;SDS011;24114;52.260;6.714;2023-08-07T21:06:21;1.90;;;1.05;;
38312;SDS011;24114;52.260;6.714;2023-08-07T21:08:49;2.60;;;1.10;;
38312;SDS011;24114;52.260;6.714;2023-08-07T21:11:17;1.55;;;1.10;;
38312;SDS011;24114;52.260;6.714;2023-08-07T21:13:44;2.33;;;1.20;;
38312;SDS011;24114;52.260;6.714;2023-08-07T21:16:12;2.17;;;1.10;;
38312;SDS011;24114;52.260;6.714;2023-08-07T21:18:43;1.95;;;1.27;;
38312;SDS011;24114;52.260;6.714;2023-08-07T21:21:11;2.08;;;1.38;;
38312;SDS011;24114;52.260;6.714;2023-08-07T21:23:39;2.72;;;1.10;;
38312;SDS011;24114;52.260;6.714;2023-08-07T21:26:07;3.37;;;1.20;;
38312;SDS011;24114;52.260;6.714;2023-08-07T21:28:35;2.55;;;1.13;;
38312;SDS011;24114;52.260;6.714;2023-08-07T21:31:02;1.90;;;1.02;;
38312;SDS011;24114;52.260;6.714;2023-08-07T21:33:31;2.13;;;1.20;;
38312;SDS011;24114;52.260;6.714;2023-08-07T21:36:00;2.00;;;1.45;;
38312;SDS011;24114;52.260;6.714;2023-08-07T21:38:29;3.20;;;1.47;;
38312;SDS011;24114;52.260;6.714;2023-08-07T21:40:57;1.77;;;1.40;;
38312;SDS011;24114;52.260;6.714;2023-08-07T21:43:25;2.67;;;1.40;;
38312;SDS011;24114;52.260;6.714;2023-08-07T21:45:53;2.30;;;1.30;;
38312;SDS011;24114;52.260;6.714;2023-08-07T21:48:21;2.80;;;1.38;;
38312;SDS011;24114;52.260;6.714;2023-08-07T21:50:49;1.45;;;1.20;;
38312;SDS011;24114;52.260;6.714;2023-08-07T21:53:18;2.90;;;1.40;;
38312;SDS011;24114;52.260;6.714;2023-08-07T21:55:46;2.78;;;1.58;;
38312;SDS011;24114;52.260;6.714;2023-08-07T21:58:14;2.38;;;1.35;;
38312;SDS011;24114;52.260;6.714;2023-08-07T22:00:42;2.20;;;1.50;;
38312;SDS011;24114;52.260;6.714;2023-08-07T22:03:10;2.30;;;1.60;;
38312;SDS011;24114;52.260;6.714;2023-08-07T22:05:38;2.40;;;1.30;;
38312;SDS011;24114;52.260;6.714;2023-08-07T22:08:06;2.80;;;1.17;;
38312;SDS011;24114;52.260;6.714;2023-08-07T22:10:35;3.35;;;1.48;;
38312;SDS011;24114;52.260;6.714;2023-08-07T22:13:03;1.70;;;1.40;;
38312;SDS011;24114;52.260;6.714;2023-08-07T22:15:32;2.45;;;1.67;;
38312;SDS011;24114;52.260;6.714;2023-08-07T22:18:00;3.05;;;1.90;;
38312;SDS011;24114;52.260;6.714;2023-08-07T22:20:28;2.60;;;1.38;;
38312;SDS011;24114;52.260;6.714;2023-08-07T22:22:55;1.90;;;1.60;;
38312;SDS011;24114;52.260;6.714;2023-08-07T22:25:23;3.45;;;1.50;;
38312;SDS011;24114;52.260;6.714;2023-08-07T22:27:52;2.08;;;1.42;;
38312;SDS011;24114;52.260;6.714;2023-08-07T22:30:20;2.95;;;1.20;;
38312;SDS011;24114;52.260;6.714;2023-08-07T22:32:48;2.50;;;1.53;;
38312;SDS011;24114;52.260;6.714;2023-08-07T22:35:17;2.35;;;1.70;;
38312;SDS011;24114;52.260;6.714;2023-08-07T22:37:46;1.90;;;1.52;;
38312;SDS011;24114;52.260;6.714;2023-08-07T22:40:13;3.10;;;1.80;;
38312;SDS011;24114;52.260;6.714;2023-08-07T22:42:41;3.20;;;1.73;;
38312;SDS011;24114;52.260;6.714;2023-08-07T22:45:10;2.90;;;1.73;;
38312;SDS011;24114;52.260;6.714;2023-08-07T22:47:38;2.15;;;1.60;;
38312;SDS011;24114;52.260;6.714;2023-08-07T22:50:06;2.95;;;1.90;;
38312;SDS011;24114;52.260;6.714;2023-08-07T22:52:34;2.33;;;1.60;;
38312;SDS011;24114;52.260;6.714;2023-08-07T22:55:03;2.65;;;1.80;;
38312;SDS011;24114;52.260;6.714;2023-08-07T22:57:32;2.78;;;1.80;;
38312;SDS011;24114;52.260;6.714;2023-08-07T23:00:00;2.03;;;1.73;;
38312;SDS011;24114;52.260;6.714;2023-08-07T23:02:29;2.22;;;1.80;;
38312;SDS011;24114;52.260;6.714;2023-08-07T23:04:58;3.47;;;2.25;;
38312;SDS011;24114;52.260;6.714;2023-08-07T23:07:26;3.28;;;2.10;;
38312;SDS011;24114;52.260;6.714;2023-08-07T23:09:53;2.30;;;2.00;;
38312;SDS011;24114;52.260;6.714;2023-08-07T23:12:21;3.38;;;2.00;;
38312;SDS011;24114;52.260;6.714;2023-08-07T23:14:49;5.07;;;2.00;;
38312;SDS011;24114;52.260;6.714;2023-08-07T23:17:17;2.33;;;2.13;;
38312;SDS011;24114;52.260;6.714;2023-08-07T23:19:46;2.90;;;2.40;;
38312;SDS011;24114;52.260;6.714;2023-08-07T23:22:14;4.25;;;2.15;;
38312;SDS011;24114;52.260;6.714;2023-08-07T23:24:42;3.13;;;1.97;;
38312;SDS011;24114;52.260;6.714;2023-08-07T23:27:10;2.20;;;1.52;;
38312;SDS011;24114;52.260;6.714;2023-08-07T23:29:40;3.60;;;1.73;;
38312;SDS011;24114;52.260;6.714;2023-08-07T23:32:08;1.90;;;1.55;;
38312;SDS011;24114;52.260;6.714;2023-08-07T23:34:36;2.90;;;1.60;;
38312;SDS011;24114;52.260;6.714;2023-08-07T23:37:05;4.20;;;1.92;;
38312;SDS011;24114;52.260;6.714;2023-08-07T23:39:33;3.17;;;1.85;;
38312;SDS011;24114;52.260;6.714;2023-08-07T23:42:01;3.20;;;1.80;;
38312;SDS011;24114;52.260;6.714;2023-08-07T23:44:29;5.10;;;1.98;;
38312;SDS011;24114;52.260;6.714;2023-08-07T23:46:57;2.72;;;2.28;;
38312;SDS011;24114;52.260;6.714;2023-08-07T23:49:25;5.32;;;2.65;;
38312;SDS011;24114;52.260;6.714;2023-08-07T23:51:53;2.83;;;2.30;;
38312;SDS011;24114;52.260;6.714;2023-08-07T23:54:22;3.72;;;2.50;;
38312;SDS011;24114;52.260;6.714;2023-08-07T23:56:50;3.13;;;2.65;;
38312;SDS011;24114;52.260;6.714;2023-08-07T23:59:18;4.60;;;3.10;;
